createdAt,value
2019-02-18T00:00:26.070Z,22.40
2019-02-18T00:01:26.128Z,19.60
2019-02-18T00:02:26.074Z,19.30
2019-02-18T00:03:26.355Z,19.80
2019-02-18T00:04:26.139Z,20.90
2019-02-18T00:05:26.095Z,20.20
2019-02-18T00:06:26.108Z,22.80
2019-02-18T00:07:26.078Z,21.60
2019-02-18T00:08:26.094Z,24.70
2019-02-18T00:09:26.118Z,21.90
2019-02-18T00:10:26.132Z,23.40
2019-02-18T00:11:26.201Z,22.70
2019-02-18T00:12:26.108Z,19.60
2019-02-18T00:13:26.110Z,20.00
2019-02-18T00:14:26.106Z,23.40
2019-02-18T00:15:26.137Z,23.40
2019-02-18T00:16:26.556Z,21.80
2019-02-18T00:17:26.132Z,21.60
2019-02-18T00:18:26.488Z,22.70
2019-02-18T00:19:26.127Z,23.00
2019-02-18T00:20:26.148Z,23.40
2019-02-18T00:21:26.279Z,26.00
2019-02-18T00:22:26.177Z,27.60
2019-02-18T00:23:26.345Z,24.80
2019-02-18T00:24:26.184Z,27.60
2019-02-18T00:25:26.153Z,22.20
2019-02-18T00:26:26.162Z,25.10
2019-02-18T00:27:26.188Z,31.70
2019-02-18T00:28:26.212Z,31.30
2019-02-18T00:29:26.188Z,35.90
2019-02-18T00:30:26.186Z,32.80
2019-02-18T00:31:26.176Z,25.80
2019-02-18T00:32:26.419Z,24.50
2019-02-18T00:33:26.208Z,34.20
2019-02-18T00:34:26.204Z,28.10
2019-02-18T00:35:26.201Z,22.40
2019-02-18T00:36:26.215Z,21.90
2019-02-18T00:37:26.201Z,26.80
2019-02-18T00:38:26.243Z,31.00
2019-02-18T00:39:26.211Z,35.30
2019-02-18T00:40:26.222Z,30.00
2019-02-18T00:41:26.218Z,22.30
2019-02-18T00:42:26.231Z,22.50
2019-02-18T00:43:26.274Z,24.40
2019-02-18T00:44:26.234Z,22.80
2019-02-18T00:45:26.254Z,26.80
2019-02-18T00:46:26.256Z,22.00
2019-02-18T00:47:26.247Z,22.00
2019-02-18T00:48:26.278Z,21.70
2019-02-18T00:49:26.269Z,21.50
2019-02-18T00:50:26.262Z,32.20
2019-02-18T00:51:26.285Z,22.50
2019-02-18T00:52:26.277Z,22.40
2019-02-18T00:53:26.267Z,21.00
2019-02-18T00:54:26.306Z,22.20
2019-02-18T00:55:26.281Z,23.30
2019-02-18T00:56:26.296Z,21.20
2019-02-18T00:57:26.317Z,21.60
2019-02-18T00:58:26.296Z,20.30
2019-02-18T00:59:26.337Z,21.30
2019-02-18T01:00:26.308Z,21.60
2019-02-18T01:01:26.299Z,20.60
2019-02-18T01:02:26.302Z,22.10
2019-02-18T01:03:26.311Z,22.00
2019-02-18T01:04:26.340Z,21.20
2019-02-18T01:05:26.342Z,20.20
2019-02-18T01:06:26.330Z,21.70
2019-02-18T01:07:34.591Z,21.70
2019-02-18T01:08:26.355Z,21.90
2019-02-18T01:09:26.347Z,22.30
2019-02-18T01:10:26.357Z,22.50
2019-02-18T01:11:26.390Z,21.80
2019-02-18T01:12:26.348Z,20.70
2019-02-18T01:13:26.353Z,20.10
2019-02-18T01:14:26.346Z,22.60
2019-02-18T01:15:26.411Z,21.20
2019-02-18T01:16:26.361Z,21.40
2019-02-18T01:17:26.361Z,20.90
2019-02-18T01:18:26.372Z,20.70
2019-02-18T01:19:26.365Z,20.80
2019-02-18T01:20:26.425Z,21.90
2019-02-18T01:21:26.388Z,20.30
2019-02-18T01:22:26.396Z,21.00
2019-02-18T01:23:26.389Z,21.20
2019-02-18T01:24:26.398Z,22.30
2019-02-18T01:25:26.420Z,20.60
2019-02-18T01:26:26.441Z,21.30
2019-02-18T01:27:26.418Z,21.40
2019-02-18T01:28:26.534Z,22.60
2019-02-18T01:29:26.447Z,22.50
2019-02-18T01:30:26.413Z,21.60
2019-02-18T01:31:26.430Z,20.60
2019-02-18T01:32:26.447Z,21.70
2019-02-18T01:33:26.556Z,22.80
2019-02-18T01:34:26.448Z,22.20
2019-02-18T01:35:26.439Z,24.10
2019-02-18T01:36:26.454Z,21.20
2019-02-18T01:37:26.462Z,20.90
2019-02-18T01:38:26.448Z,20.20
2019-02-18T01:39:26.455Z,20.40
2019-02-18T01:40:26.470Z,20.60
2019-02-18T01:41:26.464Z,20.30
2019-02-18T01:42:26.490Z,20.00
2019-02-18T01:43:26.494Z,23.20
2019-02-18T01:44:26.482Z,22.60
2019-02-18T01:45:26.493Z,20.10
2019-02-18T01:46:26.474Z,22.80
2019-02-18T01:47:26.501Z,23.30
2019-02-18T01:48:26.524Z,22.80
2019-02-18T01:49:26.499Z,21.40
2019-02-18T01:50:26.526Z,21.20
2019-02-18T01:51:26.501Z,21.20
2019-02-18T01:52:26.505Z,22.30
2019-02-18T01:53:26.545Z,21.80
2019-02-18T01:54:26.506Z,22.10
2019-02-18T01:55:26.516Z,22.20
2019-02-18T01:56:26.515Z,21.80
2019-02-18T01:57:26.523Z,21.40
2019-02-18T01:58:26.552Z,21.70
2019-02-18T01:59:26.567Z,21.20
2019-02-18T02:00:26.539Z,21.60
2019-02-18T02:01:26.561Z,22.40
2019-02-18T02:02:26.551Z,23.20
2019-02-18T02:03:26.559Z,21.60
2019-02-18T02:04:26.566Z,20.60
2019-02-18T02:05:26.590Z,21.70
2019-02-18T02:06:26.552Z,21.40
2019-02-18T02:07:26.556Z,21.40
2019-02-18T02:08:26.572Z,20.50
2019-02-18T02:09:26.565Z,21.90
2019-02-18T02:10:26.588Z,20.90
2019-02-18T02:11:26.597Z,22.50
2019-02-18T02:12:26.572Z,22.20
2019-02-18T02:13:26.606Z,21.30
2019-02-18T02:14:26.583Z,21.80
2019-02-18T02:15:26.608Z,21.00
2019-02-18T02:16:26.601Z,21.70
2019-02-18T02:17:26.609Z,21.20
2019-02-18T02:18:26.614Z,21.00
2019-02-18T02:19:26.619Z,20.90
2019-02-18T02:20:26.678Z,20.80
2019-02-18T02:21:26.618Z,22.30
2019-02-18T02:22:26.621Z,21.50
2019-02-18T02:23:26.614Z,21.40
2019-02-18T02:24:26.622Z,21.20
2019-02-18T02:25:26.635Z,21.10
2019-02-18T02:26:26.646Z,20.50
2019-02-18T02:27:26.683Z,22.10
2019-02-18T02:28:26.648Z,21.80
2019-02-18T02:29:26.662Z,22.30
2019-02-18T02:30:26.647Z,21.50
2019-02-18T02:31:26.670Z,20.90
2019-02-18T02:32:26.653Z,21.70
2019-02-18T02:33:26.685Z,22.80
2019-02-18T02:34:26.670Z,21.40
2019-02-18T02:35:26.688Z,21.60
2019-02-18T02:36:26.684Z,22.10
2019-02-18T02:37:26.701Z,21.10
2019-02-18T02:38:26.710Z,21.00
2019-02-18T02:39:26.682Z,21.10
2019-02-18T02:40:26.690Z,21.70
2019-02-18T02:41:26.690Z,21.60
2019-02-18T02:42:26.716Z,22.40
2019-02-18T02:43:26.748Z,21.40
2019-02-18T02:44:26.704Z,22.00
2019-02-18T02:45:26.714Z,21.20
2019-02-18T02:46:26.728Z,21.40
2019-02-18T02:47:26.706Z,22.10
2019-02-18T02:48:26.731Z,22.30
2019-02-18T02:49:26.735Z,22.80
2019-02-18T02:50:26.712Z,22.40
2019-02-18T02:51:26.737Z,22.10
2019-02-18T02:52:26.735Z,21.80
2019-02-18T02:53:26.774Z,22.30
2019-02-18T02:54:26.734Z,22.10
2019-02-18T02:55:26.732Z,22.40
2019-02-18T02:56:26.746Z,22.40
2019-02-18T02:57:26.758Z,22.20
2019-02-18T02:58:26.764Z,21.60
2019-02-18T02:59:26.784Z,21.90
2019-02-18T03:00:26.757Z,22.00
2019-02-18T03:01:26.757Z,22.50
2019-02-18T03:02:26.784Z,21.80
2019-02-18T03:03:26.768Z,21.20
2019-02-18T03:04:26.796Z,21.20
2019-02-18T03:05:26.792Z,21.00
2019-02-18T03:06:26.788Z,22.00
2019-02-18T03:07:26.784Z,21.30
2019-02-18T03:08:26.787Z,22.00
2019-02-18T03:09:26.816Z,21.30
2019-02-18T03:10:26.805Z,21.40
2019-02-18T03:11:26.814Z,21.70
2019-02-18T03:12:26.828Z,21.70
2019-02-18T03:13:26.801Z,22.50
2019-02-18T03:14:26.857Z,22.20
2019-02-18T03:15:26.830Z,22.00
2019-02-18T03:16:26.824Z,21.70
2019-02-18T03:17:26.837Z,22.20
2019-02-18T03:18:26.836Z,21.00
2019-02-18T03:19:26.839Z,21.40
2019-02-18T03:20:26.856Z,22.40
2019-02-18T03:21:26.836Z,22.10
2019-02-18T03:22:26.944Z,22.30
2019-02-18T03:23:26.852Z,21.70
2019-02-18T03:24:26.841Z,22.60
2019-02-18T03:25:26.906Z,22.90
2019-02-18T03:26:26.879Z,21.60
2019-02-18T03:27:26.846Z,21.50
2019-02-18T03:28:26.858Z,22.00
2019-02-18T03:29:26.883Z,21.40
2019-02-18T03:30:26.908Z,21.90
2019-02-18T03:31:26.889Z,22.00
2019-02-18T03:32:26.886Z,21.40
2019-02-18T03:33:26.973Z,21.40
2019-02-18T03:34:26.882Z,22.70
2019-02-18T03:35:26.931Z,22.20
2019-02-18T03:36:26.904Z,22.00
2019-02-18T03:37:26.903Z,21.70
2019-02-18T03:38:31.650Z,22.50
2019-02-18T03:39:26.923Z,22.10
2019-02-18T03:40:26.914Z,21.30
2019-02-18T03:41:26.967Z,21.60
2019-02-18T03:42:26.908Z,22.50
2019-02-18T03:43:26.916Z,22.20
2019-02-18T03:44:26.910Z,22.00
2019-02-18T03:45:26.914Z,21.90
2019-02-18T03:46:26.954Z,22.50
2019-02-18T03:47:27.010Z,22.10
2019-02-18T03:48:26.950Z,21.30
2019-02-18T03:49:26.936Z,21.80
2019-02-18T03:50:26.944Z,22.60
2019-02-18T03:51:26.951Z,22.50
2019-02-18T03:52:26.957Z,22.20
2019-02-18T03:53:26.975Z,22.50
2019-02-18T03:54:26.955Z,22.50
2019-02-18T03:55:26.972Z,22.50
2019-02-18T03:56:27.038Z,22.60
2019-02-18T03:57:26.961Z,22.80
2019-02-18T03:58:26.978Z,22.40
2019-02-18T03:59:26.989Z,22.80
2019-02-18T04:00:26.995Z,22.20
2019-02-18T04:01:26.986Z,22.60
2019-02-18T04:02:27.006Z,23.00
2019-02-18T04:03:26.976Z,22.80
2019-02-18T04:04:26.993Z,22.70
2019-02-18T04:05:26.996Z,22.50
2019-02-18T04:06:26.990Z,22.60
2019-02-18T04:07:27.038Z,21.60
2019-02-18T04:08:27.010Z,22.60
2019-02-18T04:09:27.015Z,22.10
2019-02-18T04:10:27.014Z,22.70
2019-02-18T04:11:27.021Z,22.30
2019-02-18T04:12:27.049Z,23.40
2019-02-18T04:13:27.046Z,22.30
2019-02-18T04:14:27.037Z,22.60
2019-02-18T04:15:27.018Z,22.00
2019-02-18T04:16:27.022Z,22.80
2019-02-18T04:17:27.048Z,22.90
2019-02-18T04:18:27.084Z,23.30
2019-02-18T04:19:27.040Z,22.90
2019-02-18T04:20:27.050Z,22.70
2019-02-18T04:21:27.060Z,23.00
2019-02-18T04:22:27.053Z,22.30
2019-02-18T04:23:27.065Z,22.70
2019-02-18T04:24:27.081Z,22.90
2019-02-18T04:25:27.098Z,23.00
2019-02-18T04:26:27.073Z,22.90
2019-02-18T04:27:27.059Z,23.50
2019-02-18T04:28:27.105Z,23.90
2019-02-18T04:29:27.108Z,24.00
2019-02-18T04:30:27.076Z,24.40
2019-02-18T04:31:27.076Z,24.60
2019-02-18T04:32:27.110Z,24.10
2019-02-18T04:33:27.140Z,23.80
2019-02-18T04:34:27.091Z,23.60
2019-02-18T04:35:27.126Z,22.50
2019-02-18T04:36:27.093Z,23.90
2019-02-18T04:37:27.118Z,23.50
2019-02-18T04:38:27.128Z,24.00
2019-02-18T04:39:27.137Z,23.40
2019-02-18T04:40:27.150Z,24.10
2019-02-18T04:41:27.126Z,23.60
2019-02-18T04:42:27.133Z,24.10
2019-02-18T04:43:27.143Z,24.30
2019-02-18T04:44:27.136Z,23.70
2019-02-18T04:45:27.182Z,23.30
2019-02-18T04:46:27.205Z,24.50
2019-02-18T04:47:27.148Z,24.00
2019-02-18T04:48:27.142Z,23.20
2019-02-18T04:49:27.158Z,23.70
2019-02-18T04:50:27.146Z,23.80
2019-02-18T04:51:27.148Z,24.00
2019-02-18T04:52:27.179Z,22.80
2019-02-18T04:53:27.186Z,23.50
2019-02-18T04:54:27.172Z,24.50
2019-02-18T04:55:27.176Z,24.00
2019-02-18T04:56:27.165Z,24.20
2019-02-18T04:57:27.239Z,24.90
2019-02-18T04:58:27.185Z,24.00
2019-02-18T04:59:27.177Z,23.90
2019-02-18T05:00:27.180Z,23.60
2019-02-18T05:01:27.190Z,22.70
2019-02-18T05:02:27.204Z,24.30
2019-02-18T05:03:27.218Z,24.40
2019-02-18T05:04:27.203Z,23.60
2019-02-18T05:05:27.195Z,24.10
2019-02-18T05:06:27.212Z,23.60
2019-02-18T05:07:27.240Z,23.20
2019-02-18T05:08:27.245Z,24.40
2019-02-18T05:09:27.232Z,25.00
2019-02-18T05:10:27.220Z,23.70
2019-02-18T05:11:27.230Z,24.00
2019-02-18T05:12:27.226Z,23.40
2019-02-18T05:13:27.232Z,23.70
2019-02-18T05:14:27.262Z,23.80
2019-02-18T05:15:27.234Z,24.30
2019-02-18T05:16:27.240Z,24.80
2019-02-18T05:17:27.237Z,24.60
2019-02-18T05:18:27.241Z,23.90
2019-02-18T05:19:27.263Z,23.70
2019-02-18T05:20:27.257Z,24.50
2019-02-18T05:21:27.259Z,23.80
2019-02-18T05:22:27.243Z,24.10
2019-02-18T05:23:27.328Z,23.80
2019-02-18T05:24:27.256Z,24.30
2019-02-18T05:25:27.345Z,24.50
2019-02-18T05:26:27.263Z,24.20
2019-02-18T05:27:33.242Z,23.40
2019-02-18T05:28:27.281Z,24.30
2019-02-18T05:29:27.313Z,23.00
2019-02-18T05:30:29.453Z,23.30
2019-02-18T05:31:27.281Z,23.20
2019-02-18T05:32:27.299Z,24.10
2019-02-18T05:33:27.304Z,23.90
2019-02-18T05:34:27.308Z,23.40
2019-02-18T05:35:27.335Z,24.40
2019-02-18T05:36:27.293Z,24.20
2019-02-18T05:37:27.299Z,23.20
2019-02-18T05:38:27.303Z,23.90
2019-02-18T05:39:27.303Z,23.20
2019-02-18T05:40:27.364Z,23.40
2019-02-18T05:41:27.327Z,24.40
2019-02-18T05:42:27.347Z,23.90
2019-02-18T05:43:27.321Z,23.90
2019-02-18T05:44:27.339Z,23.10
2019-02-18T05:45:27.361Z,24.20
2019-02-18T05:46:27.332Z,24.80
2019-02-18T05:47:27.348Z,24.00
2019-02-18T05:48:27.364Z,23.90
2019-02-18T05:49:27.349Z,24.00
2019-02-18T05:50:27.349Z,24.80
2019-02-18T05:51:28.867Z,23.80
2019-02-18T05:52:27.355Z,24.50
2019-02-18T05:53:27.362Z,24.10
2019-02-18T05:54:27.392Z,25.30
2019-02-18T05:55:27.406Z,24.40
2019-02-18T05:56:27.413Z,26.10
2019-02-18T05:57:27.389Z,25.00
2019-02-18T05:58:27.362Z,24.60
2019-02-18T05:59:27.365Z,25.10
2019-02-18T06:00:27.371Z,25.40
2019-02-18T06:01:27.421Z,24.60
2019-02-18T06:02:27.435Z,24.70
2019-02-18T06:03:27.389Z,24.80
2019-02-18T06:04:27.396Z,25.00
2019-02-18T06:05:27.398Z,25.10
2019-02-18T06:06:27.392Z,27.20
2019-02-18T06:07:27.568Z,28.00
2019-02-18T06:08:27.414Z,26.60
2019-02-18T06:09:30.205Z,25.60
2019-02-18T06:10:27.415Z,24.90
2019-02-18T06:11:27.434Z,25.50
2019-02-18T06:12:27.439Z,26.30
2019-02-18T06:13:27.461Z,26.00
2019-02-18T06:14:27.411Z,25.70
2019-02-18T06:15:27.412Z,26.10
2019-02-18T06:16:27.432Z,26.30
2019-02-18T06:17:27.427Z,25.60
2019-02-18T06:18:27.448Z,26.40
2019-02-18T06:19:27.463Z,26.10
2019-02-18T06:20:27.442Z,24.70
2019-02-18T06:21:27.437Z,24.90
2019-02-18T06:22:27.455Z,25.20
2019-02-18T06:23:27.469Z,25.30
2019-02-18T06:24:27.463Z,26.00
2019-02-18T06:25:27.475Z,25.90
2019-02-18T06:26:27.480Z,24.70
2019-02-18T06:27:27.461Z,24.00
2019-02-18T06:28:27.491Z,25.90
2019-02-18T06:29:27.464Z,25.30
2019-02-18T06:30:27.471Z,25.40
2019-02-18T06:31:27.475Z,25.00
2019-02-18T06:32:27.491Z,25.50
2019-02-18T06:33:28.356Z,25.60
2019-02-18T06:34:27.486Z,25.70
2019-02-18T06:35:27.488Z,25.30
2019-02-18T06:36:27.518Z,25.40
2019-02-18T06:37:27.555Z,25.40
2019-02-18T06:38:27.532Z,26.30
2019-02-18T06:39:27.536Z,26.20
2019-02-18T06:40:27.520Z,26.60
2019-02-18T06:41:27.529Z,25.70
2019-02-18T06:42:27.523Z,26.30
2019-02-18T06:43:27.513Z,27.10
2019-02-18T06:44:27.564Z,26.80
2019-02-18T06:45:27.514Z,26.70
2019-02-18T06:46:27.533Z,27.10
2019-02-18T06:47:27.526Z,26.50
2019-02-18T06:48:27.589Z,27.20
2019-02-18T06:49:27.539Z,27.60
2019-02-18T06:50:27.544Z,26.20
2019-02-18T06:51:27.538Z,25.80
2019-02-18T06:52:27.530Z,26.80
2019-02-18T06:53:27.574Z,27.30
2019-02-18T06:54:27.540Z,27.30
2019-02-18T06:55:27.617Z,27.00
2019-02-18T06:56:27.580Z,26.60
2019-02-18T06:57:27.576Z,27.00
2019-02-18T06:58:27.552Z,27.20
2019-02-18T06:59:27.553Z,28.20
2019-02-18T07:00:27.592Z,29.00
2019-02-18T07:01:27.581Z,27.00
2019-02-18T07:02:27.568Z,27.10
2019-02-18T07:03:27.593Z,27.60
2019-02-18T07:04:27.580Z,26.40
2019-02-18T07:05:27.626Z,26.90
2019-02-18T07:06:27.601Z,27.50
2019-02-18T07:07:27.607Z,27.80
2019-02-18T07:08:27.615Z,27.80
2019-02-18T07:09:27.588Z,26.70
2019-02-18T07:10:27.623Z,27.30
2019-02-18T07:11:27.620Z,26.90
2019-02-18T07:12:27.591Z,27.40
2019-02-18T07:13:27.639Z,27.10
2019-02-18T07:14:27.646Z,27.70
2019-02-18T07:15:27.611Z,26.70
2019-02-18T07:16:27.643Z,27.70
2019-02-18T07:17:27.622Z,27.50
2019-02-18T07:18:27.619Z,27.40
2019-02-18T07:19:27.639Z,27.40
2019-02-18T07:20:27.630Z,26.70
2019-02-18T07:21:27.644Z,25.80
2019-02-18T07:22:27.647Z,25.50
2019-02-18T07:23:27.673Z,25.80
2019-02-18T07:24:27.653Z,26.90
2019-02-18T07:25:27.648Z,27.30
2019-02-18T07:26:27.675Z,26.60
2019-02-18T07:27:27.644Z,26.20
2019-02-18T07:28:27.668Z,27.50
2019-02-18T07:29:27.673Z,27.40
2019-02-18T07:30:27.697Z,26.20
2019-02-18T07:31:27.739Z,26.50
2019-02-18T07:32:27.665Z,27.30
2019-02-18T07:33:27.678Z,29.00
2019-02-18T07:34:27.709Z,28.40
2019-02-18T07:35:27.686Z,28.00
2019-02-18T07:36:27.770Z,29.30
2019-02-18T07:37:27.695Z,29.60
2019-02-18T07:38:27.716Z,29.50
2019-02-18T07:39:27.828Z,29.50
2019-02-18T07:40:27.697Z,29.50
2019-02-18T07:41:27.702Z,29.70
2019-02-18T07:42:27.699Z,28.20
2019-02-18T07:43:27.705Z,26.70
2019-02-18T07:44:27.718Z,27.20
2019-02-18T07:45:27.744Z,27.30
2019-02-18T07:46:27.750Z,27.90
2019-02-18T07:47:27.715Z,28.10
2019-02-18T07:48:27.719Z,28.20
2019-02-18T07:49:27.770Z,28.00
2019-02-18T07:50:27.780Z,27.00
2019-02-18T07:51:27.733Z,26.90
2019-02-18T07:52:27.751Z,26.10
2019-02-18T07:53:27.814Z,26.50
2019-02-18T07:54:27.764Z,25.50
2019-02-18T07:55:27.759Z,25.60
2019-02-18T07:56:27.787Z,26.90
2019-02-18T07:57:27.763Z,27.30
2019-02-18T07:58:27.772Z,27.40
2019-02-18T07:59:27.800Z,28.00
2019-02-18T08:00:27.807Z,28.30
2019-02-18T08:01:27.815Z,27.40
2019-02-18T08:02:27.780Z,28.20
2019-02-18T08:03:27.790Z,27.40
2019-02-18T08:04:27.782Z,27.10
2019-02-18T08:05:27.785Z,27.30
2019-02-18T08:06:27.824Z,25.80
2019-02-18T08:07:27.816Z,27.10
2019-02-18T08:08:27.791Z,28.00
2019-02-18T08:09:27.875Z,26.90
2019-02-18T08:10:27.822Z,26.90
2019-02-18T08:11:27.853Z,26.60
2019-02-18T08:12:27.817Z,27.50
2019-02-18T08:13:27.819Z,27.70
2019-02-18T08:14:27.847Z,28.60
2019-02-18T08:15:27.828Z,27.90
2019-02-18T08:16:27.823Z,28.60
2019-02-18T08:17:27.855Z,28.50
2019-02-18T08:18:27.835Z,28.70
2019-02-18T08:19:27.844Z,28.70
2019-02-18T08:20:27.852Z,27.90
2019-02-18T08:21:27.877Z,27.70
2019-02-18T08:22:27.899Z,27.10
2019-02-18T08:23:27.869Z,27.80
2019-02-18T08:24:27.869Z,27.40
2019-02-18T08:25:27.872Z,26.30
2019-02-18T08:26:27.862Z,27.40
2019-02-18T08:27:27.891Z,26.50
2019-02-18T08:28:27.899Z,27.40
2019-02-18T08:29:27.905Z,27.10
2019-02-18T08:30:27.903Z,28.30
2019-02-18T08:31:27.881Z,28.50
2019-02-18T08:32:27.899Z,26.90
2019-02-18T08:33:27.890Z,26.60
2019-02-18T08:34:27.955Z,27.40
2019-02-18T08:35:27.933Z,26.20
2019-02-18T08:36:27.914Z,26.40
2019-02-18T08:37:30.208Z,25.00
2019-02-18T08:38:27.915Z,25.50
2019-02-18T08:39:27.908Z,25.00
2019-02-18T08:40:27.963Z,23.50
2019-02-18T08:41:27.922Z,25.00
2019-02-18T08:42:27.954Z,25.70
2019-02-18T08:43:27.934Z,25.50
2019-02-18T08:44:27.930Z,25.80
2019-02-18T08:45:27.940Z,25.60
2019-02-18T08:46:27.963Z,24.10
2019-02-18T08:47:27.939Z,23.20
2019-02-18T08:48:27.953Z,23.50
2019-02-18T08:49:27.977Z,23.20
2019-02-18T08:50:27.952Z,22.30
2019-02-18T08:51:28.007Z,23.30
2019-02-18T08:52:27.974Z,22.80
2019-02-18T08:53:27.970Z,21.40
2019-02-18T08:54:27.981Z,20.70
2019-02-18T08:55:27.976Z,21.60
2019-02-18T08:56:28.032Z,21.90
2019-02-18T08:57:28.013Z,21.20
2019-02-18T08:58:28.007Z,21.10
2019-02-18T08:59:27.993Z,21.20
2019-02-18T09:00:27.997Z,22.20
2019-02-18T09:01:28.028Z,21.50
2019-02-18T09:02:28.020Z,21.80
2019-02-18T09:03:28.057Z,21.20
2019-02-18T09:04:28.259Z,21.50
2019-02-18T09:05:28.107Z,21.30
2019-02-18T09:06:28.053Z,21.50
2019-02-18T09:07:28.079Z,21.40
2019-02-18T09:08:28.032Z,21.80
2019-02-18T09:09:28.039Z,21.40
2019-02-18T09:10:33.658Z,21.50
2019-02-18T09:11:28.036Z,21.80
2019-02-18T09:12:28.198Z,21.40
2019-02-18T09:13:28.079Z,20.80
2019-02-18T09:14:28.053Z,21.80
2019-02-18T09:15:28.108Z,22.30
2019-02-18T09:16:28.067Z,21.70
2019-02-18T09:17:28.069Z,21.60
2019-02-18T09:18:28.093Z,22.20
2019-02-18T09:19:28.090Z,21.60
2019-02-18T09:20:28.094Z,21.20
2019-02-18T09:21:28.105Z,21.00
2019-02-18T09:22:28.110Z,20.90
2019-02-18T09:23:28.133Z,21.80
2019-02-18T09:24:28.105Z,21.50
2019-02-18T09:25:28.120Z,21.20
2019-02-18T09:26:28.105Z,20.90
2019-02-18T09:27:28.102Z,20.80
2019-02-18T09:28:28.208Z,20.80
2019-02-18T09:29:28.112Z,21.10
2019-02-18T09:30:28.144Z,22.10
2019-02-18T09:31:28.127Z,20.90
2019-02-18T09:32:28.132Z,21.10
2019-02-18T09:33:28.138Z,21.00
2019-02-18T09:34:28.135Z,20.70
2019-02-18T09:35:28.202Z,21.10
2019-02-18T09:36:28.164Z,20.60
2019-02-18T09:37:28.162Z,20.50
2019-02-18T09:38:28.167Z,19.80
2019-02-18T09:39:31.102Z,20.40
2019-02-18T09:40:28.218Z,21.10
2019-02-18T09:41:28.176Z,19.70
2019-02-18T09:42:28.183Z,20.30
2019-02-18T09:43:28.172Z,20.40
2019-02-18T09:44:28.180Z,20.20
2019-02-18T09:45:28.201Z,19.60
2019-02-18T09:46:28.219Z,19.90
2019-02-18T09:47:28.210Z,19.60
2019-02-18T09:48:28.209Z,19.90
2019-02-18T09:49:28.234Z,20.00
2019-02-18T09:50:28.207Z,20.10
2019-02-18T09:51:28.249Z,19.50
2019-02-18T09:52:28.222Z,19.10
2019-02-18T09:53:28.229Z,20.10
2019-02-18T09:54:28.227Z,19.50
2019-02-18T09:55:28.253Z,19.80
2019-02-18T09:56:28.294Z,19.20
2019-02-18T09:57:28.486Z,19.80
2019-02-18T09:58:28.243Z,19.00
2019-02-18T09:59:28.256Z,19.70
2019-02-18T10:00:28.263Z,20.40
2019-02-18T10:01:28.268Z,19.90
2019-02-18T10:02:28.279Z,18.90
2019-02-18T10:03:32.064Z,19.30
2019-02-18T10:04:28.274Z,19.50
2019-02-18T10:05:28.299Z,19.10
2019-02-18T10:06:28.316Z,19.50
2019-02-18T10:07:28.317Z,18.90
2019-02-18T10:08:28.438Z,18.90
2019-02-18T10:09:28.321Z,19.50
2019-02-18T10:10:28.315Z,19.40
2019-02-18T10:11:28.311Z,19.30
2019-02-18T10:12:28.333Z,19.50
2019-02-18T10:13:28.329Z,19.50
2019-02-18T10:14:28.364Z,19.50
2019-02-18T10:15:28.361Z,19.00
2019-02-18T10:16:28.337Z,19.70
2019-02-18T10:17:28.347Z,19.60
2019-02-18T10:18:28.341Z,19.80
2019-02-18T10:19:28.364Z,20.10
2019-02-18T10:20:28.487Z,20.90
2019-02-18T10:21:28.374Z,20.80
2019-02-18T10:22:28.357Z,19.90
2019-02-18T10:23:28.372Z,20.00
2019-02-18T10:24:28.366Z,20.50
2019-02-18T10:25:28.381Z,19.70
2019-02-18T10:26:28.399Z,20.10
2019-02-18T10:27:28.396Z,20.50
2019-02-18T10:28:28.401Z,20.90
2019-02-18T10:29:28.391Z,20.50
2019-02-18T10:30:28.402Z,21.20
2019-02-18T10:31:28.440Z,20.70
2019-02-18T10:32:28.417Z,20.60
2019-02-18T10:33:28.422Z,20.50
2019-02-18T10:34:28.423Z,20.00
2019-02-18T10:35:28.516Z,21.00
2019-02-18T10:36:28.451Z,20.50
2019-02-18T10:37:28.447Z,20.90
2019-02-18T10:38:28.434Z,20.40
2019-02-18T10:39:28.446Z,20.40
2019-02-18T10:40:28.451Z,20.30
2019-02-18T10:41:28.507Z,20.30
2019-02-18T10:42:28.475Z,19.30
2019-02-18T10:43:32.505Z,19.60
2019-02-18T10:44:28.467Z,19.80
2019-02-18T10:45:28.461Z,19.90
2019-02-18T10:46:28.513Z,18.80
2019-02-18T10:47:28.510Z,19.60
2019-02-18T10:48:28.517Z,19.70
2019-02-18T10:49:28.513Z,19.00
2019-02-18T10:50:28.511Z,19.50
2019-02-18T10:51:28.496Z,18.70
2019-02-18T10:52:28.527Z,18.30
2019-02-18T10:53:28.509Z,19.50
2019-02-18T10:54:28.524Z,17.90
2019-02-18T10:55:28.541Z,17.80
2019-02-18T10:56:28.551Z,17.90
2019-02-18T10:57:28.585Z,19.00
2019-02-18T10:58:28.604Z,18.70
2019-02-18T10:59:28.546Z,18.10
2019-02-18T11:00:28.579Z,17.60
2019-02-18T11:01:28.561Z,18.00
2019-02-18T11:02:28.570Z,17.70
2019-02-18T11:03:28.594Z,18.00
2019-02-18T11:04:28.562Z,26.90
2019-02-18T11:05:28.596Z,19.70
2019-02-18T11:06:28.582Z,17.90
2019-02-18T11:07:28.609Z,17.20
2019-02-18T11:08:28.611Z,18.50
2019-02-18T11:09:28.590Z,17.50
2019-02-18T11:10:28.600Z,18.30
2019-02-18T11:11:28.608Z,18.10
2019-02-18T11:12:28.670Z,17.60
2019-02-18T11:13:28.665Z,18.00
2019-02-18T11:14:28.671Z,18.30
2019-02-18T11:15:28.625Z,17.90
2019-02-18T11:16:28.634Z,18.90
2019-02-18T11:17:38.511Z,18.40
2019-02-18T11:18:28.655Z,18.40
2019-02-18T11:19:28.713Z,18.20
2019-02-18T11:20:28.659Z,18.60
2019-02-18T11:21:28.671Z,18.00
2019-02-18T11:22:28.666Z,18.30
2019-02-18T11:23:28.669Z,18.00
2019-02-18T11:24:28.730Z,18.10
2019-02-18T11:25:28.842Z,17.40
2019-02-18T11:26:28.707Z,17.70
2019-02-18T11:27:28.711Z,18.00
2019-02-18T11:28:28.714Z,19.00
2019-02-18T11:29:28.774Z,18.30
2019-02-18T11:30:28.743Z,18.40
2019-02-18T11:31:28.732Z,18.50
2019-02-18T11:32:28.739Z,18.50
2019-02-18T11:33:28.728Z,18.60
2019-02-18T11:34:28.730Z,18.20
2019-02-18T11:35:28.776Z,18.00
2019-02-18T11:36:28.741Z,18.30
2019-02-18T11:37:28.739Z,18.30
2019-02-18T11:38:28.774Z,17.90
2019-02-18T11:39:28.784Z,17.40
2019-02-18T11:40:28.798Z,18.10
2019-02-18T11:41:29.482Z,18.20
2019-02-18T11:42:31.275Z,18.00
2019-02-18T11:43:31.777Z,19.30
2019-02-18T11:44:30.292Z,18.30
2019-02-18T11:45:29.222Z,18.80
2019-02-18T11:46:28.853Z,19.00
2019-02-18T11:47:28.817Z,18.90
2019-02-18T11:48:28.806Z,19.40
2019-02-18T11:49:28.858Z,18.90
2019-02-18T11:50:28.832Z,18.20
2019-02-18T11:51:28.899Z,17.70
2019-02-18T11:52:28.841Z,18.70
2019-02-18T11:53:28.872Z,18.40
2019-02-18T11:54:28.849Z,18.20
2019-02-18T11:55:28.874Z,18.40
2019-02-18T11:56:28.929Z,18.00
2019-02-18T11:57:28.891Z,18.60
2019-02-18T11:58:28.856Z,18.20
2019-02-18T11:59:28.882Z,18.60
2019-02-18T12:00:28.876Z,18.60
2019-02-18T12:01:28.952Z,18.90
2019-02-18T12:02:28.922Z,18.80
2019-02-18T12:03:28.966Z,18.50
2019-02-18T12:04:28.900Z,18.30
2019-02-18T12:05:28.900Z,18.30
2019-02-18T12:06:28.947Z,18.30
2019-02-18T12:07:28.938Z,18.40
2019-02-18T12:08:28.918Z,18.50
2019-02-18T12:09:28.946Z,18.20
2019-02-18T12:10:28.930Z,17.70
2019-02-18T12:11:37.824Z,18.80
2019-02-18T12:12:28.940Z,18.50
2019-02-18T12:13:28.981Z,18.60
2019-02-18T12:14:28.949Z,18.90
2019-02-18T12:15:28.963Z,19.20
2019-02-18T12:16:28.968Z,20.30
2019-02-18T12:17:28.969Z,18.90
2019-02-18T12:18:29.012Z,18.50
2019-02-18T12:19:29.049Z,19.60
2019-02-18T12:20:29.036Z,17.40
2019-02-18T12:21:29.000Z,18.30
2019-02-18T12:22:29.024Z,16.90
2019-02-18T12:23:29.002Z,16.80
2019-02-18T12:24:29.004Z,17.70
2019-02-18T12:25:29.063Z,17.50
2019-02-18T12:26:29.014Z,16.80
2019-02-18T12:27:29.031Z,16.40
2019-02-18T12:28:29.091Z,17.00
2019-02-18T12:29:29.056Z,17.10
2019-02-18T12:30:29.037Z,16.50
2019-02-18T12:31:29.062Z,17.30
2019-02-18T12:32:29.062Z,16.90
2019-02-18T12:33:29.075Z,17.00
2019-02-18T12:34:29.101Z,16.90
2019-02-18T12:35:31.428Z,17.50
2019-02-18T12:36:29.110Z,16.90
2019-02-18T12:37:30.092Z,17.40
2019-02-18T12:38:29.159Z,16.90
2019-02-18T12:39:29.136Z,16.30
2019-02-18T12:40:29.136Z,16.30
2019-02-18T12:41:29.114Z,17.30
2019-02-18T12:42:29.139Z,16.30
2019-02-18T12:43:29.448Z,16.60
2019-02-18T12:44:29.123Z,16.10
2019-02-18T12:45:29.137Z,16.80
2019-02-18T12:46:29.136Z,16.30
2019-02-18T12:47:29.145Z,16.00
2019-02-18T12:48:29.142Z,16.50
2019-02-18T12:49:29.179Z,16.60
2019-02-18T12:50:29.168Z,16.70
2019-02-18T12:51:29.203Z,16.40
2019-02-18T12:52:29.175Z,16.00